sensor_id;sensor_type;location;lat;lon;timestamp;pressure;altitude;pressure_sealevel;temperature;humidity
788;BME280;16074;42.708;23.312;2023-08-06T00:00:45;-15920.41;;;18.04;nan
788;BME280;16074;42.708;23.312;2023-08-06T00:03:15;-16254.00;;;18.18;nan
788;BME280;16074;42.708;23.312;2023-08-06T00:05:44;-16585.41;;;18.21;nan
788;BME280;16074;42.708;23.312;2023-08-06T00:08:12;-16587.63;;;18.31;nan
788;BME280;16074;42.708;23.312;2023-08-06T00:10:41;-16587.06;;;18.28;nan
788;BME280;16074;42.708;23.312;2023-08-06T00:13:09;-16919.88;;;18.37;nan
788;BME280;16074;42.708;23.312;2023-08-06T00:15:37;-16921.34;;;18.44;nan
788;BME280;16074;42.708;23.312;2023-08-06T00:18:06;-17254.03;;;18.52;nan
788;BME280;16074;42.708;23.312;2023-08-06T00:20:38;-17256.34;;;18.62;nan
788;BME280;16074;42.708;23.312;2023-08-06T00:23:07;-17589.38;;;18.71;nan
788;BME280;16074;42.708;23.312;2023-08-06T00:25:36;-17590.66;;;18.76;nan
788;BME280;16074;42.708;23.312;2023-08-06T00:28:04;-17923.31;;;18.83;nan
788;BME280;16074;42.708;23.312;2023-08-06T00:30:33;-17924.53;;;18.88;nan
788;BME280;16074;42.708;23.312;2023-08-06T00:33:01;-17925.00;;;18.90;nan
788;BME280;16074;42.708;23.312;2023-08-06T00:35:30;-17926.09;;;18.95;nan
788;BME280;16074;42.708;23.312;2023-08-06T00:37:59;-17926.69;;;18.97;nan
788;BME280;16074;42.708;23.312;2023-08-06T00:40:28;-17927.53;;;19.01;nan
788;BME280;16074;42.708;23.312;2023-08-06T00:42:57;-17928.03;;;19.03;nan
788;BME280;16074;42.708;23.312;2023-08-06T00:45:25;-17597.16;;;19.04;nan
788;BME280;16074;42.708;23.312;2023-08-06T00:47:53;-17596.69;;;19.02;nan
788;BME280;16074;42.708;23.312;2023-08-06T00:50:21;-17264.66;;;18.98;nan
788;BME280;16074;42.708;23.312;2023-08-06T00:52:50;-17265.22;;;19.00;nan
788;BME280;16074;42.708;23.312;2023-08-06T00:55:20;-16933.66;;;18.98;nan
788;BME280;16074;42.708;23.312;2023-08-06T00:57:48;-16933.53;;;18.98;nan
788;BME280;16074;42.708;23.312;2023-08-06T01:00:18;-16268.94;;;18.87;nan
788;BME280;16074;42.708;23.312;2023-08-06T01:02:48;-15605.59;;;18.82;nan
788;BME280;16074;42.708;23.312;2023-08-06T01:05:16;-14605.84;;;18.50;nan
788;BME280;16074;42.708;23.312;2023-08-06T01:07:51;-14938.84;;;18.60;nan
788;BME280;16074;42.708;23.312;2023-08-06T01:10:35;-14605.94;;;18.50;nan
788;BME280;16074;42.708;23.312;2023-08-06T01:13:13;-14939.25;;;18.62;nan
788;BME280;16074;42.708;23.312;2023-08-06T01:15:48;-14607.38;;;18.58;nan
788;BME280;16074;42.708;23.312;2023-08-06T01:18:18;-14607.28;;;18.57;nan
788;BME280;16074;42.708;23.312;2023-08-06T01:20:47;-14940.22;;;18.67;nan
788;BME280;16074;42.708;23.312;2023-08-06T01:23:16;-14276.03;;;18.57;nan
788;BME280;16074;42.708;23.312;2023-08-06T01:25:50;-13943.19;;;18.47;nan
788;BME280;16074;42.708;23.312;2023-08-06T01:28:24;-14276.22;;;18.58;nan
788;BME280;16074;42.708;23.312;2023-08-06T01:30:59;-14608.50;;;18.64;nan
788;BME280;16074;42.708;23.312;2023-08-06T01:33:31;-14941.47;;;18.73;nan
788;BME280;16074;42.708;23.312;2023-08-06T01:36:02;-14610.00;;;18.72;nan
788;BME280;16074;42.708;23.312;2023-08-06T01:38:32;-14610.56;;;18.75;nan
788;BME280;16074;42.708;23.312;2023-08-06T01:41:00;-14942.34;;;18.78;nan
788;BME280;16074;42.708;23.312;2023-08-06T01:43:28;-14943.59;;;18.84;nan
788;BME280;16074;42.708;23.312;2023-08-06T01:45:57;-14609.63;;;18.70;nan
788;BME280;16074;42.708;23.312;2023-08-06T01:48:25;-13946.22;;;18.64;nan
788;BME280;16074;42.708;23.312;2023-08-06T01:50:53;-13948.16;;;18.75;nan
788;BME280;16074;42.708;23.312;2023-08-06T01:53:23;-13949.06;;;18.80;nan
788;BME280;16074;42.708;23.312;2023-08-06T01:55:51;-13617.38;;;18.78;nan
788;BME280;16074;42.708;23.312;2023-08-06T01:58:20;-12953.34;;;18.70;nan
788;BME280;16074;42.708;23.312;2023-08-06T02:00:48;-13285.56;;;18.75;nan
788;BME280;16074;42.708;23.312;2023-08-06T02:03:16;-12620.44;;;18.60;nan
788;BME280;16074;42.708;23.312;2023-08-06T02:05:48;-13285.66;;;18.76;nan
788;BME280;16074;42.708;23.312;2023-08-06T02:08:20;-13286.56;;;18.81;nan
788;BME280;16074;42.708;23.312;2023-08-06T02:10:49;-13618.94;;;18.87;nan
788;BME280;16074;42.708;23.312;2023-08-06T02:13:18;-13617.72;;;18.80;nan
788;BME280;16074;42.708;23.312;2023-08-06T02:15:46;-13950.38;;;18.88;nan
788;BME280;16074;42.708;23.312;2023-08-06T02:18:15;-13619.38;;;18.90;nan
788;BME280;16074;42.708;23.312;2023-08-06T02:20:44;-13288.06;;;18.90;nan
788;BME280;16074;42.708;23.312;2023-08-06T02:23:22;-12290.00;;;18.66;nan
788;BME280;16074;42.708;23.312;2023-08-06T02:25:58;-12620.50;;;18.60;nan
788;BME280;16074;42.708;23.312;2023-08-06T02:28:27;-12286.34;;;18.41;nan
788;BME280;16074;42.708;23.312;2023-08-06T02:30:56;-12947.63;;;18.34;nan
788;BME280;16074;42.708;23.312;2023-08-06T02:33:24;-13278.41;;;18.32;nan
788;BME280;16074;42.708;23.312;2023-08-06T02:36:02;-14273.22;;;18.41;nan
788;BME280;16074;42.708;23.312;2023-08-06T02:38:31;-14605.38;;;18.47;nan
788;BME280;16074;42.708;23.312;2023-08-06T02:41:02;-14603.03;;;18.35;nan
788;BME280;16074;42.708;23.312;2023-08-06T02:43:31;-14600.69;;;18.22;nan
788;BME280;16074;42.708;23.312;2023-08-06T02:46:00;-14599.84;;;18.18;nan
788;BME280;16074;42.708;23.312;2023-08-06T02:48:29;-14931.41;;;18.21;nan
788;BME280;16074;42.708;23.312;2023-08-06T02:50:57;-14930.81;;;18.18;nan
788;BME280;16074;42.708;23.312;2023-08-06T02:53:28;-14932.28;;;18.26;nan
788;BME280;16074;42.708;23.312;2023-08-06T02:56:01;-14932.19;;;18.25;nan
788;BME280;16074;42.708;23.312;2023-08-06T02:58:41;-15264.78;;;18.34;nan
788;BME280;16074;42.708;23.312;2023-08-06T03:01:29;-15598.25;;;18.46;nan
788;BME280;16074;42.708;23.312;2023-08-06T03:04:04;-15600.19;;;18.56;nan
788;BME280;16074;42.708;23.312;2023-08-06T03:06:38;-15933.28;;;18.66;nan
788;BME280;16074;42.708;23.312;2023-08-06T03:09:07;-15935.50;;;18.76;nan
788;BME280;16074;42.708;23.312;2023-08-06T03:11:36;-15934.97;;;18.74;nan
788;BME280;16074;42.708;23.312;2023-08-06T03:14:09;-15935.19;;;18.75;nan
788;BME280;16074;42.708;23.312;2023-08-06T03:16:38;-15935.38;;;18.76;nan
788;BME280;16074;42.708;23.312;2023-08-06T03:19:06;-15602.75;;;18.68;nan
788;BME280;16074;42.708;23.312;2023-08-06T03:21:34;-15602.75;;;18.68;nan
788;BME280;16074;42.708;23.312;2023-08-06T03:24:04;-15269.75;;;18.59;nan
788;BME280;16074;42.708;23.312;2023-08-06T03:26:34;-15603.97;;;18.74;nan
788;BME280;16074;42.708;23.312;2023-08-06T03:29:03;-15602.53;;;18.67;nan
788;BME280;16074;42.708;23.312;2023-08-06T03:31:33;-15268.06;;;18.50;nan
788;BME280;16074;42.708;23.312;2023-08-06T03:34:02;-14936.34;;;18.47;nan
788;BME280;16074;42.708;23.312;2023-08-06T03:36:31;-14602.84;;;18.34;nan
788;BME280;16074;42.708;23.312;2023-08-06T03:39:01;-14935.00;;;18.40;nan
788;BME280;16074;42.708;23.312;2023-08-06T03:41:31;-14602.47;;;18.32;nan
788;BME280;16074;42.708;23.312;2023-08-06T03:44:00;-14603.69;;;18.38;nan
788;BME280;16074;42.708;23.312;2023-08-06T03:46:31;-14937.03;;;18.50;nan
788;BME280;16074;42.708;23.312;2023-08-06T03:49:03;-15269.84;;;18.59;nan
788;BME280;16074;42.708;23.312;2023-08-06T03:51:31;-15271.34;;;18.67;nan
788;BME280;16074;42.708;23.312;2023-08-06T03:54:01;-15603.97;;;18.74;nan
788;BME280;16074;42.708;23.312;2023-08-06T03:56:29;-15605.50;;;18.82;nan
788;BME280;16074;42.708;23.312;2023-08-06T03:58:58;-15938.94;;;18.93;nan
788;BME280;16074;42.708;23.312;2023-08-06T04:01:27;-15940.31;;;18.99;nan
788;BME280;16074;42.708;23.312;2023-08-06T04:03:57;-16272.72;;;19.05;nan
788;BME280;16074;42.708;23.312;2023-08-06T04:06:25;-16274.75;;;19.14;nan
788;BME280;16074;42.708;23.312;2023-08-06T04:08:53;-16275.28;;;19.17;nan
788;BME280;16074;42.708;23.312;2023-08-06T04:11:21;-16275.63;;;19.18;nan
788;BME280;16074;42.708;23.312;2023-08-06T04:13:50;-16276.25;;;19.21;nan
788;BME280;16074;42.708;23.312;2023-08-06T04:16:18;-15945.97;;;19.26;nan
788;BME280;16074;42.708;23.312;2023-08-06T04:18:47;-15278.69;;;19.04;nan
788;BME280;16074;42.708;23.312;2023-08-06T04:21:17;-15280.38;;;19.12;nan
788;BME280;16074;42.708;23.312;2023-08-06T04:23:46;-15281.78;;;19.19;nan
788;BME280;16074;42.708;23.312;2023-08-06T04:26:14;-14949.78;;;19.16;nan
788;BME280;16074;42.708;23.312;2023-08-06T04:28:43;-15282.97;;;19.25;nan
788;BME280;16074;42.708;23.312;2023-08-06T04:31:12;-15285.25;;;19.36;nan
788;BME280;16074;42.708;23.312;2023-08-06T04:33:42;-15287.53;;;19.48;nan
788;BME280;16074;42.708;23.312;2023-08-06T04:36:13;-14622.22;;;19.36;nan
788;BME280;16074;42.708;23.312;2023-08-06T04:38:42;-14288.38;;;19.24;nan
788;BME280;16074;42.708;23.312;2023-08-06T04:41:14;-14291.19;;;19.39;nan
788;BME280;16074;42.708;23.312;2023-08-06T04:43:43;-14292.09;;;19.44;nan
788;BME280;16074;42.708;23.312;2023-08-06T04:46:12;-14290.75;;;19.37;nan
788;BME280;16074;42.708;23.312;2023-08-06T04:48:40;-14292.47;;;19.46;nan
788;BME280;16074;42.708;23.312;2023-08-06T04:51:08;-13958.00;;;19.30;nan
788;BME280;16074;42.708;23.312;2023-08-06T04:53:37;-13293.22;;;19.21;nan
788;BME280;16074;42.708;23.312;2023-08-06T04:56:06;-12962.34;;;19.25;nan
788;BME280;16074;42.708;23.312;2023-08-06T04:58:34;-12962.44;;;19.26;nan
788;BME280;16074;42.708;23.312;2023-08-06T05:01:06;-13296.13;;;19.38;nan
788;BME280;16074;42.708;23.312;2023-08-06T05:03:34;-13628.81;;;19.44;nan
788;BME280;16074;42.708;23.312;2023-08-06T05:06:03;-12632.94;;;19.40;nan
788;BME280;16074;42.708;23.312;2023-08-06T05:08:31;-11304.38;;;19.29;nan
788;BME280;16074;42.708;23.312;2023-08-06T05:10:59;-11305.63;;;19.39;nan
788;BME280;16074;42.708;23.312;2023-08-06T05:13:29;-10973.97;;;19.40;nan
788;BME280;16074;42.708;23.312;2023-08-06T05:15:57;-11305.78;;;19.40;nan
788;BME280;16074;42.708;23.312;2023-08-06T05:18:26;-11638.38;;;19.45;nan
788;BME280;16074;42.708;23.312;2023-08-06T05:20:54;-11305.91;;;19.41;nan
788;BME280;16074;42.708;23.312;2023-08-06T05:23:23;-12302.56;;;19.49;nan
788;BME280;16074;42.708;23.312;2023-08-06T05:25:51;-11970.00;;;19.44;nan
788;BME280;16074;42.708;23.312;2023-08-06T05:28:19;-11970.56;;;19.48;nan
788;BME280;16074;42.708;23.312;2023-08-06T05:30:49;-11972.16;;;19.59;nan
788;BME280;16074;42.708;23.312;2023-08-06T05:33:17;-12305.16;;;19.66;nan
788;BME280;16074;42.708;23.312;2023-08-06T05:35:45;-11973.91;;;19.71;nan
788;BME280;16074;42.708;23.312;2023-08-06T05:38:14;-12639.72;;;19.83;nan
788;BME280;16074;42.708;23.312;2023-08-06T05:40:42;-12641.66;;;19.96;nan
788;BME280;16074;42.708;23.312;2023-08-06T05:43:10;-12642.91;;;20.04;nan
788;BME280;16074;42.708;23.312;2023-08-06T05:45:38;-13309.50;;;20.19;nan
788;BME280;16074;42.708;23.312;2023-08-06T05:48:08;-11648.66;;;20.19;nan
788;BME280;16074;42.708;23.312;2023-08-06T05:50:36;-9988.53;;;20.33;nan
788;BME280;16074;42.708;23.312;2023-08-06T05:53:05;-3000.28;;;20.26;nan
788;BME280;16074;42.708;23.312;2023-08-06T05:55:33;4333.38;;;20.24;nan
788;BME280;16074;42.708;23.312;2023-08-06T05:58:02;15022.31;;;20.14;nan
788;BME280;16074;42.708;23.312;2023-08-06T06:00:30;13353.53;;;20.27;nan
788;BME280;16074;42.708;23.312;2023-08-06T06:02:58;32692.00;;;20.21;nan
788;BME280;16074;42.708;23.312;2023-08-06T06:05:28;33139.97;;;20.32;nan
788;BME280;16074;42.708;23.312;2023-08-06T06:07:57;32144.31;;;20.41;nan
788;BME280;16074;42.708;23.312;2023-08-06T06:10:25;57732.09;;;20.42;nan
788;BME280;16074;42.708;23.312;2023-08-06T06:12:53;58019.59;;;20.44;nan
788;BME280;16074;42.708;23.312;2023-08-06T06:15:21;60283.09;;;20.52;nan
788;BME280;16074;42.708;23.312;2023-08-06T06:17:50;51323.50;;;20.65;nan
788;BME280;16074;42.708;23.312;2023-08-06T06:20:18;51383.47;;;20.76;nan
788;BME280;16074;42.708;23.312;2023-08-06T06:22:48;62703.19;;;20.90;nan
788;BME280;16074;42.708;23.312;2023-08-06T06:25:16;73413.09;;;21.09;nan
788;BME280;16074;42.708;23.312;2023-08-06T06:27:44;95948.56;;;21.23;nan
788;BME280;16074;42.708;23.312;2023-08-06T06:30:13;106699.97;;;21.31;nan
788;BME280;16074;42.708;23.312;2023-08-06T06:32:41;103234.72;;;21.37;nan
788;BME280;16074;42.708;23.312;2023-08-06T06:35:09;124601.25;;;21.41;nan
788;BME280;16074;42.708;23.312;2023-08-06T06:37:38;131467.41;;;21.40;nan
788;BME280;16074;42.708;23.312;2023-08-06T06:40:08;137026.84;;;21.51;nan
788;BME280;16074;42.708;23.312;2023-08-06T06:42:36;143355.69;;;21.58;nan
788;BME280;16074;42.708;23.312;2023-08-06T06:45:08;142954.00;;;21.63;nan
788;BME280;16074;42.708;23.312;2023-08-06T06:47:37;143533.22;;;21.56;nan
788;BME280;16074;42.708;23.312;2023-08-06T06:50:06;143560.03;;;21.67;nan
788;BME280;16074;42.708;23.312;2023-08-06T06:52:35;143564.91;;;21.69;nan
788;BME280;16074;42.708;23.312;2023-08-06T06:55:03;143560.03;;;21.67;nan
788;BME280;16074;42.708;23.312;2023-08-06T06:57:33;143583.19;;;21.76;nan
788;BME280;16074;42.708;23.312;2023-08-06T07:00:02;143622.06;;;21.92;nan
788;BME280;16074;42.708;23.312;2023-08-06T07:02:32;143658.56;;;22.07;nan
788;BME280;16074;42.708;23.312;2023-08-06T07:05:00;143697.53;;;22.23;nan
788;BME280;16074;42.708;23.312;2023-08-06T07:07:29;143717.00;;;22.31;nan
788;BME280;16074;42.708;23.312;2023-08-06T07:09:57;143735.28;;;22.39;nan
788;BME280;16074;42.708;23.312;2023-08-06T07:12:25;143768.13;;;22.52;nan
788;BME280;16074;42.708;23.312;2023-08-06T07:14:55;143762.06;;;22.50;nan
788;BME280;16074;42.708;23.312;2023-08-06T07:17:24;143799.75;;;22.65;nan
788;BME280;16074;42.708;23.312;2023-08-06T07:19:52;143838.72;;;22.81;nan
788;BME280;16074;42.708;23.312;2023-08-06T07:22:20;143877.66;;;22.97;nan
788;BME280;16074;42.708;23.312;2023-08-06T07:24:49;143842.38;;;22.83;nan
788;BME280;16074;42.708;23.312;2023-08-06T07:27:17;143915.47;;;23.12;nan
788;BME280;16074;42.708;23.312;2023-08-06T07:29:45;143959.28;;;23.30;nan
788;BME280;16074;42.708;23.312;2023-08-06T07:32:16;144010.44;;;23.51;nan
788;BME280;16074;42.708;23.312;2023-08-06T07:34:44;144000.69;;;23.47;nan
788;BME280;16074;42.708;23.312;2023-08-06T07:37:13;144036.00;;;23.62;nan
788;BME280;16074;42.708;23.312;2023-08-06T07:39:41;144008.00;;;23.50;nan
788;BME280;16074;42.708;23.312;2023-08-06T07:42:10;143915.47;;;23.12;nan
788;BME280;16074;42.708;23.312;2023-08-06T07:44:39;143891.06;;;23.02;nan
788;BME280;16074;42.708;23.312;2023-08-06T07:47:07;143982.44;;;23.40;nan
788;BME280;16074;42.708;23.312;2023-08-06T07:49:36;143959.28;;;23.30;nan
788;BME280;16074;42.708;23.312;2023-08-06T07:52:05;144004.38;;;23.49;nan
788;BME280;16074;42.708;23.312;2023-08-06T07:54:34;144048.19;;;23.67;nan
788;BME280;16074;42.708;23.312;2023-08-06T07:57:02;144090.88;;;23.84;nan
788;BME280;16074;42.708;23.312;2023-08-06T07:59:30;144086.00;;;23.82;nan
788;BME280;16074;42.708;23.312;2023-08-06T08:01:59;144104.31;;;23.90;nan
788;BME280;16074;42.708;23.312;2023-08-06T08:04:28;144083.56;;;23.81;nan
788;BME280;16074;42.708;23.312;2023-08-06T08:06:57;144114.06;;;23.94;nan
788;BME280;16074;42.708;23.312;2023-08-06T08:09:25;144162.75;;;24.14;nan
788;BME280;16074;42.708;23.312;2023-08-06T08:11:54;144212.75;;;24.34;nan
788;BME280;16074;42.708;23.312;2023-08-06T08:14:26;144250.59;;;24.49;nan
788;BME280;16074;42.708;23.312;2023-08-06T08:16:55;144289.56;;;24.65;nan
788;BME280;16074;42.708;23.312;2023-08-06T08:19:24;144340.78;;;24.86;nan
788;BME280;16074;42.708;23.312;2023-08-06T08:21:52;144390.78;;;25.07;nan
788;BME280;16074;42.708;23.312;2023-08-06T08:24:23;144444.50;;;25.29;nan
788;BME280;16074;42.708;23.312;2023-08-06T08:26:54;144490.88;;;25.48;nan
788;BME280;16074;42.708;23.312;2023-08-06T08:29:22;144503.03;;;25.52;nan
788;BME280;16074;42.708;23.312;2023-08-06T08:31:50;144565.25;;;25.78;nan
788;BME280;16074;42.708;23.312;2023-08-06T08:34:19;144615.38;;;25.98;nan
788;BME280;16074;42.708;23.312;2023-08-06T08:36:47;144681.25;;;26.25;nan
788;BME280;16074;42.708;23.312;2023-08-06T08:39:16;144739.91;;;26.49;nan
788;BME280;16074;42.708;23.312;2023-08-06T08:41:46;144778.94;;;26.65;nan
788;BME280;16074;42.708;23.312;2023-08-06T08:44:16;144804.63;;;26.75;nan
788;BME280;16074;42.708;23.312;2023-08-06T08:46:45;144822.91;;;26.83;nan
788;BME280;16074;42.708;23.312;2023-08-06T08:49:15;144785.06;;;26.68;nan
788;BME280;16074;42.708;23.312;2023-08-06T08:51:44;144770.41;;;26.62;nan
788;BME280;16074;42.708;23.312;2023-08-06T08:54:15;144825.38;;;26.84;nan
788;BME280;16074;42.708;23.312;2023-08-06T08:56:46;144906.06;;;27.17;nan
788;BME280;16074;42.708;23.312;2023-08-06T08:59:14;144939.03;;;27.30;nan
788;BME280;16074;42.708;23.312;2023-08-06T09:01:44;144908.50;;;27.18;nan
788;BME280;16074;42.708;23.312;2023-08-06T09:04:17;144786.28;;;26.68;nan
788;BME280;16074;42.708;23.312;2023-08-06T09:06:48;144800.94;;;26.74;nan
788;BME280;16074;42.708;23.312;2023-08-06T09:09:23;144869.34;;;27.02;nan
788;BME280;16074;42.708;23.312;2023-08-06T09:11:59;145012.31;;;27.60;nan
788;BME280;16074;42.708;23.312;2023-08-06T09:14:28;145052.66;;;27.77;nan
788;BME280;16074;42.708;23.312;2023-08-06T09:16:57;145082.00;;;27.89;nan
788;BME280;16074;42.708;23.312;2023-08-06T09:19:26;145117.50;;;28.03;nan
788;BME280;16074;42.708;23.312;2023-08-06T09:21:55;145161.47;;;28.21;nan
788;BME280;16074;42.708;23.312;2023-08-06T09:24:24;145133.38;;;28.09;nan
788;BME280;16074;42.708;23.312;2023-08-06T09:26:54;145042.94;;;27.73;nan
788;BME280;16074;42.708;23.312;2023-08-06T09:29:22;145124.78;;;28.06;nan
788;BME280;16074;42.708;23.312;2023-08-06T09:31:51;145236.09;;;28.51;nan
788;BME280;16074;42.708;23.312;2023-08-06T09:34:21;145347.47;;;28.97;nan
788;BME280;16074;42.708;23.312;2023-08-06T09:36:51;145417.19;;;29.25;nan
788;BME280;16074;42.708;23.312;2023-08-06T09:39:24;145263.00;;;28.62;nan
788;BME280;16074;42.708;23.312;2023-08-06T09:41:56;145272.81;;;28.66;nan
788;BME280;16074;42.708;23.312;2023-08-06T09:44:26;145329.13;;;28.89;nan
788;BME280;16074;42.708;23.312;2023-08-06T09:46:56;145368.25;;;29.05;nan
788;BME280;16074;42.708;23.312;2023-08-06T09:49:26;145441.66;;;29.35;nan
788;BME280;16074;42.708;23.312;2023-08-06T09:51:55;145515.13;;;29.65;nan
788;BME280;16074;42.708;23.312;2023-08-06T09:54:26;145511.47;;;29.63;nan
788;BME280;16074;42.708;23.312;2023-08-06T09:56:57;145411.03;;;29.23;nan
788;BME280;16074;42.708;23.312;2023-08-06T09:59:26;145452.66;;;29.39;nan
788;BME280;16074;42.708;23.312;2023-08-06T10:01:54;145483.28;;;29.52;nan
788;BME280;16074;42.708;23.312;2023-08-06T10:04:24;145487.00;;;29.53;nan
788;BME280;16074;42.708;23.312;2023-08-06T10:07:01;145397.59;;;29.17;nan
788;BME280;16074;42.708;23.312;2023-08-06T10:09:29;145310.69;;;28.82;nan
788;BME280;16074;42.708;23.312;2023-08-06T10:11:59;145199.41;;;28.36;nan
788;BME280;16074;42.708;23.312;2023-08-06T10:14:30;145254.47;;;28.59;nan
788;BME280;16074;42.708;23.312;2023-08-06T10:17:01;145210.44;;;28.41;nan
788;BME280;16074;42.708;23.312;2023-08-06T10:19:30;145238.56;;;28.52;nan
788;BME280;16074;42.708;23.312;2023-08-06T10:22:10;145337.66;;;28.93;nan
788;BME280;16074;42.708;23.312;2023-08-06T10:24:52;145250.78;;;28.57;nan
788;BME280;16074;42.708;23.312;2023-08-06T10:27:27;145254.47;;;28.59;nan
788;BME280;16074;42.708;23.312;2023-08-06T10:29:56;145288.69;;;28.73;nan
788;BME280;16074;42.708;23.312;2023-08-06T10:32:48;145318.09;;;28.85;nan
788;BME280;16074;42.708;23.312;2023-08-06T10:35:45;145387.81;;;29.13;nan
788;BME280;16074;42.708;23.312;2023-08-06T10:38:18;145493.09;;;29.56;nan
788;BME280;16074;42.708;23.312;2023-08-06T10:40:49;145603.31;;;30.01;nan
788;BME280;16074;42.708;23.312;2023-08-06T10:43:29;145633.91;;;30.13;nan
788;BME280;16074;42.708;23.312;2023-08-06T10:45:59;145512.66;;;29.64;nan
788;BME280;16074;42.708;23.312;2023-08-06T10:48:31;145456.34;;;29.41;nan
788;BME280;16074;42.708;23.312;2023-08-06T10:51:02;145362.13;;;29.03;nan
788;BME280;16074;42.708;23.312;2023-08-06T10:53:31;145188.41;;;28.32;nan
788;BME280;16074;42.708;23.312;2023-08-06T10:56:00;145139.47;;;28.12;nan
788;BME280;16074;42.708;23.312;2023-08-06T10:58:33;144903.59;;;27.16;nan
788;BME280;16074;42.708;23.312;2023-08-06T11:01:02;144940.22;;;27.31;nan
788;BME280;16074;42.708;23.312;2023-08-06T11:03:31;145017.19;;;27.62;nan
788;BME280;16074;42.708;23.312;2023-08-06T11:05:59;144951.25;;;27.35;nan
788;BME280;16074;42.708;23.312;2023-08-06T11:08:34;144972.00;;;27.44;nan
788;BME280;16074;42.708;23.312;2023-08-06T11:11:09;144854.69;;;26.96;nan
788;BME280;16074;42.708;23.312;2023-08-06T11:13:42;144765.53;;;26.60;nan
788;BME280;16074;42.708;23.312;2023-08-06T11:16:11;144732.59;;;26.46;nan
788;BME280;16074;42.708;23.312;2023-08-06T11:18:40;144706.88;;;26.36;nan
788;BME280;16074;42.708;23.312;2023-08-06T11:21:09;144673.91;;;26.22;nan
788;BME280;16074;42.708;23.312;2023-08-06T11:23:39;144581.19;;;25.84;nan
788;BME280;16074;42.708;23.312;2023-08-06T11:26:08;144564.03;;;25.77;nan
788;BME280;16074;42.708;23.312;2023-08-06T11:28:36;144496.94;;;25.50;nan
788;BME280;16074;42.708;23.312;2023-08-06T11:31:06;144488.44;;;25.47;nan
788;BME280;16074;42.708;23.312;2023-08-06T11:33:35;144473.78;;;25.41;nan
788;BME280;16074;42.708;23.312;2023-08-06T11:36:03;144536.00;;;25.66;nan
788;BME280;16074;42.708;23.312;2023-08-06T11:38:32;144608.03;;;25.95;nan
788;BME280;16074;42.708;23.312;2023-08-06T11:41:00;144678.81;;;26.24;nan
788;BME280;16074;42.708;23.312;2023-08-06T11:43:30;144735.03;;;26.47;nan
788;BME280;16074;42.708;23.312;2023-08-06T11:46:00;144826.63;;;26.84;nan
788;BME280;16074;42.708;23.312;2023-08-06T11:48:29;145006.22;;;27.58;nan
788;BME280;16074;42.708;23.312;2023-08-06T11:50:57;145182.34;;;28.29;nan
788;BME280;16074;42.708;23.312;2023-08-06T11:53:27;145398.84;;;29.18;nan
788;BME280;16074;42.708;23.312;2023-08-06T11:55:56;145520.00;;;29.67;nan
788;BME280;16074;42.708;23.312;2023-08-06T11:58:24;145603.31;;;30.01;nan
788;BME280;16074;42.708;23.312;2023-08-06T12:00:53;145762.53;;;30.65;nan
788;BME280;16074;42.708;23.312;2023-08-06T12:03:23;145829.88;;;30.93;nan
788;BME280;16074;42.708;23.312;2023-08-06T12:05:56;145970.88;;;31.50;nan
788;BME280;16074;42.708;23.312;2023-08-06T12:08:26;146102.06;;;32.03;nan
788;BME280;16074;42.708;23.312;2023-08-06T12:10:55;146167.09;;;32.30;nan
788;BME280;16074;42.708;23.312;2023-08-06T12:13:23;145985.59;;;31.56;nan
788;BME280;16074;42.708;23.312;2023-08-06T12:15:51;145878.97;;;31.13;nan
788;BME280;16074;42.708;23.312;2023-08-06T12:18:20;145446.56;;;29.37;nan
788;BME280;16074;42.708;23.312;2023-08-06T12:20:49;145511.47;;;29.63;nan
788;BME280;16074;42.708;23.312;2023-08-06T12:23:19;145412.28;;;29.23;nan
788;BME280;16074;42.708;23.312;2023-08-06T12:25:47;145245.88;;;28.55;nan
788;BME280;16074;42.708;23.312;2023-08-06T12:28:16;145318.09;;;28.85;nan
788;BME280;16074;42.708;23.312;2023-08-06T12:30:45;145369.47;;;29.06;nan
788;BME280;16074;42.708;23.312;2023-08-06T12:33:14;145430.63;;;29.30;nan
788;BME280;16074;42.708;23.312;2023-08-06T12:35:42;145493.09;;;29.56;nan
788;BME280;16074;42.708;23.312;2023-08-06T12:38:10;145212.88;;;28.42;nan
788;BME280;16074;42.708;23.312;2023-08-06T12:40:41;145012.31;;;27.60;nan
788;BME280;16074;42.708;23.312;2023-08-06T12:43:10;144835.13;;;26.88;nan
788;BME280;16074;42.708;23.312;2023-08-06T12:45:38;144898.72;;;27.14;nan
788;BME280;16074;42.708;23.312;2023-08-06T12:48:06;144957.34;;;27.38;nan
788;BME280;16074;42.708;23.312;2023-08-06T12:50:35;144934.13;;;27.28;nan
788;BME280;16074;42.708;23.312;2023-08-06T12:53:04;144956.13;;;27.37;nan
788;BME280;16074;42.708;23.312;2023-08-06T12:55:32;144881.63;;;27.07;nan
788;BME280;16074;42.708;23.312;2023-08-06T12:58:02;144858.31;;;26.97;nan
788;BME280;16074;42.708;23.312;2023-08-06T13:00:30;144829.06;;;26.85;nan
788;BME280;16074;42.708;23.312;2023-08-06T13:02:59;144854.69;;;26.96;nan
788;BME280;16074;42.708;23.312;2023-08-06T13:05:27;144855.88;;;26.96;nan
788;BME280;16074;42.708;23.312;2023-08-06T13:07:55;144888.94;;;27.10;nan
788;BME280;16074;42.708;23.312;2023-08-06T13:10:24;144886.50;;;27.09;nan
788;BME280;16074;42.708;23.312;2023-08-06T13:12:54;145073.47;;;27.85;nan
788;BME280;16074;42.708;23.312;2023-08-06T13:15:24;145151.69;;;28.17;nan
788;BME280;16074;42.708;23.312;2023-08-06T13:17:52;145175.00;;;28.26;nan
788;BME280;16074;42.708;23.312;2023-08-06T13:20:20;145193.31;;;28.34;nan
788;BME280;16074;42.708;23.312;2023-08-06T13:22:49;145214.09;;;28.42;nan
788;BME280;16074;42.708;23.312;2023-08-06T13:25:20;145194.50;;;28.34;nan
788;BME280;16074;42.708;23.312;2023-08-06T13:27:48;145172.50;;;28.25;nan
788;BME280;16074;42.708;23.312;2023-08-06T13:30:16;145128.47;;;28.07;nan
788;BME280;16074;42.708;23.312;2023-08-06T13:32:47;145077.13;;;27.87;nan
788;BME280;16074;42.708;23.312;2023-08-06T13:35:15;145049.03;;;27.75;nan